sensor_id;sensor_type;location;lat;lon;timestamp;P1;durP1;ratioP1;P2;durP2;ratioP2
2824;SDS011;1420;51.324;12.344;2023-07-09T00:00:18;265.30;;;252.24;;
2824;SDS011;1420;51.324;12.344;2023-07-09T00:02:45;246.06;;;233.44;;
2824;SDS011;1420;51.324;12.344;2023-07-09T00:05:13;269.76;;;256.08;;
2824;SDS011;1420;51.324;12.344;2023-07-09T00:07:40;257.98;;;245.10;;
2824;SDS011;1420;51.324;12.344;2023-07-09T00:10:16;270.66;;;256.68;;
2824;SDS011;1420;51.324;12.344;2023-07-09T00:12:43;249.50;;;236.98;;
2824;SDS011;1420;51.324;12.344;2023-07-09T00:15:11;254.56;;;241.78;;
2824;SDS011;1420;51.324;12.344;2023-07-09T00:17:37;267.02;;;253.44;;
2824;SDS011;1420;51.324;12.344;2023-07-09T00:20:05;225.96;;;214.24;;
2824;SDS011;1420;51.324;12.344;2023-07-09T00:22:32;252.26;;;239.82;;
2824;SDS011;1420;51.324;12.344;2023-07-09T00:24:59;224.88;;;213.40;;
2824;SDS011;1420;51.324;12.344;2023-07-09T00:27:28;239.82;;;227.82;;
2824;SDS011;1420;51.324;12.344;2023-07-09T00:29:54;231.98;;;220.16;;
2824;SDS011;1420;51.324;12.344;2023-07-09T00:32:21;215.28;;;204.12;;
2824;SDS011;1420;51.324;12.344;2023-07-09T00:34:48;244.80;;;232.12;;
2824;SDS011;1420;51.324;12.344;2023-07-09T00:37:17;235.08;;;223.20;;
2824;SDS011;1420;51.324;12.344;2023-07-09T00:39:44;230.18;;;218.26;;
2824;SDS011;1420;51.324;12.344;2023-07-09T00:42:12;225.20;;;213.96;;
2824;SDS011;1420;51.324;12.344;2023-07-09T00:44:41;255.80;;;243.12;;
2824;SDS011;1420;51.324;12.344;2023-07-09T00:47:18;225.38;;;214.34;;
2824;SDS011;1420;51.324;12.344;2023-07-09T00:49:47;234.74;;;223.28;;
2824;SDS011;1420;51.324;12.344;2023-07-09T00:52:26;217.72;;;206.30;;
2824;SDS011;1420;51.324;12.344;2023-07-09T00:54:54;210.44;;;199.68;;
2824;SDS011;1420;51.324;12.344;2023-07-09T00:57:23;228.44;;;217.10;;
2824;SDS011;1420;51.324;12.344;2023-07-09T00:59:50;220.26;;;209.44;;
2824;SDS011;1420;51.324;12.344;2023-07-09T01:02:16;196.14;;;186.26;;
2824;SDS011;1420;51.324;12.344;2023-07-09T01:04:43;222.10;;;211.54;;
2824;SDS011;1420;51.324;12.344;2023-07-09T01:07:10;214.38;;;204.36;;
2824;SDS011;1420;51.324;12.344;2023-07-09T01:09:37;191.02;;;181.16;;
2824;SDS011;1420;51.324;12.344;2023-07-09T01:12:05;211.48;;;201.04;;
2824;SDS011;1420;51.324;12.344;2023-07-09T01:14:32;209.78;;;199.32;;
2824;SDS011;1420;51.324;12.344;2023-07-09T01:17:00;207.32;;;197.28;;
2824;SDS011;1420;51.324;12.344;2023-07-09T01:19:28;183.18;;;173.64;;
2824;SDS011;1420;51.324;12.344;2023-07-09T01:21:56;195.80;;;186.20;;
2824;SDS011;1420;51.324;12.344;2023-07-09T01:27:02;209.96;;;199.98;;
2824;SDS011;1420;51.324;12.344;2023-07-09T01:29:30;209.50;;;199.52;;
2824;SDS011;1420;51.324;12.344;2023-07-09T01:31:57;196.00;;;186.12;;
2824;SDS011;1420;51.324;12.344;2023-07-09T01:34:24;181.36;;;172.08;;
2824;SDS011;1420;51.324;12.344;2023-07-09T01:36:51;170.10;;;161.28;;
2824;SDS011;1420;51.324;12.344;2023-07-09T01:39:18;171.26;;;162.88;;
2824;SDS011;1420;51.324;12.344;2023-07-09T01:41:46;151.04;;;143.16;;
2824;SDS011;1420;51.324;12.344;2023-07-09T01:44:13;145.14;;;137.42;;
2824;SDS011;1420;51.324;12.344;2023-07-09T01:46:40;128.22;;;121.36;;
2824;SDS011;1420;51.324;12.344;2023-07-09T01:49:07;154.56;;;146.90;;
2824;SDS011;1420;51.324;12.344;2023-07-09T01:51:34;155.60;;;147.96;;
2824;SDS011;1420;51.324;12.344;2023-07-09T01:54:02;149.04;;;141.62;;
2824;SDS011;1420;51.324;12.344;2023-07-09T01:56:30;126.36;;;119.46;;
2824;SDS011;1420;51.324;12.344;2023-07-09T01:58:57;148.02;;;140.26;;
2824;SDS011;1420;51.324;12.344;2023-07-09T02:01:24;132.26;;;125.36;;
2824;SDS011;1420;51.324;12.344;2023-07-09T02:03:51;133.14;;;126.22;;
2824;SDS011;1420;51.324;12.344;2023-07-09T02:06:19;121.10;;;114.64;;
2824;SDS011;1420;51.324;12.344;2023-07-09T02:08:46;116.44;;;109.96;;
2824;SDS011;1420;51.324;12.344;2023-07-09T02:11:13;106.34;;;100.26;;
2824;SDS011;1420;51.324;12.344;2023-07-09T02:13:40;74.62;;;69.60;;
2824;SDS011;1420;51.324;12.344;2023-07-09T02:16:07;79.16;;;73.90;;
2824;SDS011;1420;51.324;12.344;2023-07-09T02:18:35;76.62;;;71.74;;
2824;SDS011;1420;51.324;12.344;2023-07-09T02:21:02;56.10;;;51.86;;
2824;SDS011;1420;51.324;12.344;2023-07-09T02:23:29;52.06;;;48.14;;
2824;SDS011;1420;51.324;12.344;2023-07-09T02:25:56;33.30;;;30.28;;
2824;SDS011;1420;51.324;12.344;2023-07-09T02:28:24;22.92;;;17.90;;
2824;SDS011;1420;51.324;12.344;2023-07-09T02:30:51;23.78;;;18.78;;
2824;SDS011;1420;51.324;12.344;2023-07-09T02:33:19;20.22;;;14.78;;
2824;SDS011;1420;51.324;12.344;2023-07-09T02:35:46;20.70;;;13.54;;
2824;SDS011;1420;51.324;12.344;2023-07-09T02:38:13;19.58;;;13.18;;
2824;SDS011;1420;51.324;12.344;2023-07-09T02:40:40;20.24;;;12.24;;
2824;SDS011;1420;51.324;12.344;2023-07-09T02:43:07;21.24;;;10.88;;
2824;SDS011;1420;51.324;12.344;2023-07-09T02:45:35;19.72;;;10.88;;
2824;SDS011;1420;51.324;12.344;2023-07-09T02:48:02;21.02;;;10.40;;
2824;SDS011;1420;51.324;12.344;2023-07-09T02:50:29;22.78;;;10.72;;
2824;SDS011;1420;51.324;12.344;2023-07-09T02:52:56;20.78;;;11.64;;
2824;SDS011;1420;51.324;12.344;2023-07-09T02:55:24;15.78;;;9.30;;
2824;SDS011;1420;51.324;12.344;2023-07-09T02:57:51;17.86;;;11.14;;
2824;SDS011;1420;51.324;12.344;2023-07-09T03:00:18;18.74;;;10.46;;
2824;SDS011;1420;51.324;12.344;2023-07-09T03:02:45;20.28;;;10.94;;
2824;SDS011;1420;51.324;12.344;2023-07-09T03:05:12;19.68;;;10.82;;
2824;SDS011;1420;51.324;12.344;2023-07-09T03:07:40;17.90;;;11.52;;
2824;SDS011;1420;51.324;12.344;2023-07-09T03:10:07;19.76;;;10.40;;
2824;SDS011;1420;51.324;12.344;2023-07-09T03:12:34;19.08;;;11.34;;
2824;SDS011;1420;51.324;12.344;2023-07-09T03:15:01;19.34;;;12.42;;
2824;SDS011;1420;51.324;12.344;2023-07-09T03:17:29;23.50;;;15.02;;
2824;SDS011;1420;51.324;12.344;2023-07-09T03:19:56;18.28;;;10.36;;
2824;SDS011;1420;51.324;12.344;2023-07-09T03:22:23;20.40;;;12.48;;
2824;SDS011;1420;51.324;12.344;2023-07-09T03:24:51;19.40;;;10.54;;
2824;SDS011;1420;51.324;12.344;2023-07-09T03:27:18;20.78;;;12.84;;
2824;SDS011;1420;51.324;12.344;2023-07-09T03:29:45;21.40;;;15.48;;
2824;SDS011;1420;51.324;12.344;2023-07-09T03:32:12;21.00;;;12.40;;
2824;SDS011;1420;51.324;12.344;2023-07-09T03:34:39;19.96;;;12.08;;
2824;SDS011;1420;51.324;12.344;2023-07-09T03:37:07;23.02;;;14.50;;
2824;SDS011;1420;51.324;12.344;2023-07-09T03:39:34;19.90;;;11.98;;
2824;SDS011;1420;51.324;12.344;2023-07-09T03:42:01;21.72;;;13.66;;
2824;SDS011;1420;51.324;12.344;2023-07-09T03:44:28;21.60;;;13.64;;
2824;SDS011;1420;51.324;12.344;2023-07-09T03:46:55;22.04;;;14.84;;
2824;SDS011;1420;51.324;12.344;2023-07-09T03:49:23;20.80;;;13.44;;
2824;SDS011;1420;51.324;12.344;2023-07-09T03:51:50;20.74;;;13.10;;
2824;SDS011;1420;51.324;12.344;2023-07-09T03:54:17;21.72;;;13.24;;
2824;SDS011;1420;51.324;12.344;2023-07-09T03:56:44;21.60;;;12.86;;
2824;SDS011;1420;51.324;12.344;2023-07-09T03:59:11;20.46;;;13.80;;
2824;SDS011;1420;51.324;12.344;2023-07-09T04:01:39;19.90;;;14.14;;
2824;SDS011;1420;51.324;12.344;2023-07-09T04:04:06;23.02;;;12.62;;
2824;SDS011;1420;51.324;12.344;2023-07-09T04:06:33;21.00;;;14.66;;
2824;SDS011;1420;51.324;12.344;2023-07-09T04:09:00;20.50;;;11.54;;
2824;SDS011;1420;51.324;12.344;2023-07-09T04:11:28;22.22;;;13.60;;
2824;SDS011;1420;51.324;12.344;2023-07-09T04:13:55;20.66;;;14.00;;
2824;SDS011;1420;51.324;12.344;2023-07-09T04:16:22;19.50;;;11.64;;
2824;SDS011;1420;51.324;12.344;2023-07-09T04:18:49;24.24;;;15.12;;
2824;SDS011;1420;51.324;12.344;2023-07-09T04:21:16;21.76;;;12.94;;
2824;SDS011;1420;51.324;12.344;2023-07-09T04:23:44;21.56;;;15.58;;
2824;SDS011;1420;51.324;12.344;2023-07-09T04:26:13;21.44;;;13.20;;
2824;SDS011;1420;51.324;12.344;2023-07-09T04:28:40;21.68;;;12.80;;
2824;SDS011;1420;51.324;12.344;2023-07-09T04:31:07;21.98;;;14.64;;
2824;SDS011;1420;51.324;12.344;2023-07-09T04:33:34;22.68;;;18.78;;
2824;SDS011;1420;51.324;12.344;2023-07-09T04:36:01;29.20;;;16.20;;
2824;SDS011;1420;51.324;12.344;2023-07-09T04:38:29;23.76;;;16.28;;
2824;SDS011;1420;51.324;12.344;2023-07-09T04:40:56;23.48;;;17.10;;
2824;SDS011;1420;51.324;12.344;2023-07-09T04:43:23;23.58;;;15.14;;
2824;SDS011;1420;51.324;12.344;2023-07-09T04:45:50;24.94;;;20.96;;
2824;SDS011;1420;51.324;12.344;2023-07-09T04:48:17;23.38;;;16.88;;
2824;SDS011;1420;51.324;12.344;2023-07-09T04:50:45;23.48;;;14.56;;
2824;SDS011;1420;51.324;12.344;2023-07-09T04:53:12;21.82;;;15.18;;
2824;SDS011;1420;51.324;12.344;2023-07-09T04:55:39;23.40;;;19.98;;
2824;SDS011;1420;51.324;12.344;2023-07-09T04:58:06;24.30;;;18.82;;
2824;SDS011;1420;51.324;12.344;2023-07-09T05:00:34;28.36;;;25.10;;
2824;SDS011;1420;51.324;12.344;2023-07-09T05:03:01;37.72;;;34.52;;
2824;SDS011;1420;51.324;12.344;2023-07-09T05:05:28;31.20;;;28.12;;
2824;SDS011;1420;51.324;12.344;2023-07-09T05:07:55;29.20;;;26.22;;
2824;SDS011;1420;51.324;12.344;2023-07-09T05:10:22;33.44;;;30.16;;
2824;SDS011;1420;51.324;12.344;2023-07-09T05:12:50;35.66;;;32.22;;
2824;SDS011;1420;51.324;12.344;2023-07-09T05:15:17;47.82;;;44.08;;
2824;SDS011;1420;51.324;12.344;2023-07-09T05:17:44;48.72;;;44.92;;
2824;SDS011;1420;51.324;12.344;2023-07-09T05:20:12;48.48;;;44.56;;
2824;SDS011;1420;51.324;12.344;2023-07-09T05:22:38;49.54;;;45.66;;
2824;SDS011;1420;51.324;12.344;2023-07-09T05:25:06;52.78;;;48.82;;
2824;SDS011;1420;51.324;12.344;2023-07-09T05:27:33;52.14;;;47.88;;
2824;SDS011;1420;51.324;12.344;2023-07-09T05:30:01;48.72;;;44.94;;
2824;SDS011;1420;51.324;12.344;2023-07-09T05:32:28;50.48;;;46.62;;
2824;SDS011;1420;51.324;12.344;2023-07-09T05:34:55;60.24;;;55.94;;
2824;SDS011;1420;51.324;12.344;2023-07-09T05:37:23;48.96;;;45.10;;
2824;SDS011;1420;51.324;12.344;2023-07-09T05:39:50;47.36;;;43.66;;
2824;SDS011;1420;51.324;12.344;2023-07-09T05:42:17;49.84;;;45.92;;
2824;SDS011;1420;51.324;12.344;2023-07-09T05:44:44;40.96;;;37.22;;
2824;SDS011;1420;51.324;12.344;2023-07-09T05:47:11;50.72;;;46.72;;
2824;SDS011;1420;51.324;12.344;2023-07-09T05:49:39;52.10;;;48.18;;
2824;SDS011;1420;51.324;12.344;2023-07-09T05:52:06;67.98;;;63.40;;
2824;SDS011;1420;51.324;12.344;2023-07-09T05:54:33;54.42;;;50.44;;
2824;SDS011;1420;51.324;12.344;2023-07-09T05:57:00;81.68;;;76.66;;
2824;SDS011;1420;51.324;12.344;2023-07-09T05:59:28;93.10;;;87.46;;
2824;SDS011;1420;51.324;12.344;2023-07-09T06:01:55;153.52;;;145.64;;
2824;SDS011;1420;51.324;12.344;2023-07-09T06:04:22;216.56;;;206.12;;
2824;SDS011;1420;51.324;12.344;2023-07-09T06:06:49;251.22;;;239.56;;
2824;SDS011;1420;51.324;12.344;2023-07-09T06:09:16;289.54;;;276.42;;
2824;SDS011;1420;51.324;12.344;2023-07-09T06:11:44;301.90;;;287.94;;
2824;SDS011;1420;51.324;12.344;2023-07-09T06:14:11;352.40;;;335.68;;
2824;SDS011;1420;51.324;12.344;2023-07-09T06:16:38;355.10;;;338.42;;
2824;SDS011;1420;51.324;12.344;2023-07-09T06:19:05;388.80;;;370.36;;
2824;SDS011;1420;51.324;12.344;2023-07-09T06:21:32;387.96;;;369.12;;
2824;SDS011;1420;51.324;12.344;2023-07-09T06:24:00;421.78;;;400.98;;
2824;SDS011;1420;51.324;12.344;2023-07-09T06:26:27;412.62;;;392.20;;
2824;SDS011;1420;51.324;12.344;2023-07-09T06:28:54;448.58;;;426.34;;
2824;SDS011;1420;51.324;12.344;2023-07-09T06:31:21;475.40;;;451.44;;
2824;SDS011;1420;51.324;12.344;2023-07-09T06:33:49;477.12;;;453.28;;
2824;SDS011;1420;51.324;12.344;2023-07-09T06:36:16;461.42;;;438.50;;
2824;SDS011;1420;51.324;12.344;2023-07-09T06:38:43;462.62;;;439.32;;
2824;SDS011;1420;51.324;12.344;2023-07-09T06:41:10;490.64;;;465.90;;
2824;SDS011;1420;51.324;12.344;2023-07-09T06:43:37;494.96;;;469.86;;
2824;SDS011;1420;51.324;12.344;2023-07-09T06:46:07;528.20;;;500.92;;
2824;SDS011;1420;51.324;12.344;2023-07-09T06:48:33;577.44;;;547.44;;
2824;SDS011;1420;51.324;12.344;2023-07-09T06:51:00;467.22;;;443.02;;
2824;SDS011;1420;51.324;12.344;2023-07-09T06:53:27;500.82;;;475.58;;
2824;SDS011;1420;51.324;12.344;2023-07-09T06:55:54;598.36;;;566.64;;
2824;SDS011;1420;51.324;12.344;2023-07-09T06:58:22;661.76;;;623.72;;
2824;SDS011;1420;51.324;12.344;2023-07-09T07:00:49;595.32;;;564.54;;
2824;SDS011;1420;51.324;12.344;2023-07-09T07:03:16;529.94;;;502.70;;
2824;SDS011;1420;51.324;12.344;2023-07-09T07:05:44;543.78;;;516.02;;
2824;SDS011;1420;51.324;12.344;2023-07-09T07:08:13;513.08;;;487.26;;
2824;SDS011;1420;51.324;12.344;2023-07-09T07:10:39;496.20;;;471.10;;
2824;SDS011;1420;51.324;12.344;2023-07-09T07:13:06;461.78;;;438.70;;
2824;SDS011;1420;51.324;12.344;2023-07-09T07:15:36;604.24;;;573.12;;
2824;SDS011;1420;51.324;12.344;2023-07-09T07:18:01;582.56;;;552.68;;
2824;SDS011;1420;51.324;12.344;2023-07-09T07:20:29;606.26;;;575.12;;
2824;SDS011;1420;51.324;12.344;2023-07-09T07:22:56;585.02;;;555.32;;
2824;SDS011;1420;51.324;12.344;2023-07-09T07:25:24;615.08;;;582.70;;
2824;SDS011;1420;51.324;12.344;2023-07-09T07:27:51;587.44;;;557.88;;
2824;SDS011;1420;51.324;12.344;2023-07-09T07:30:18;629.48;;;596.02;;
2824;SDS011;1420;51.324;12.344;2023-07-09T07:32:46;629.88;;;596.54;;
2824;SDS011;1420;51.324;12.344;2023-07-09T07:35:13;632.22;;;599.02;;
2824;SDS011;1420;51.324;12.344;2023-07-09T07:37:40;592.44;;;562.06;;
2824;SDS011;1420;51.324;12.344;2023-07-09T07:40:08;567.32;;;538.64;;
2824;SDS011;1420;51.324;12.344;2023-07-09T07:42:35;608.24;;;576.84;;
2824;SDS011;1420;51.324;12.344;2023-07-09T07:45:02;599.22;;;569.06;;
2824;SDS011;1420;51.324;12.344;2023-07-09T07:47:29;594.54;;;564.22;;
2824;SDS011;1420;51.324;12.344;2023-07-09T07:49:57;601.82;;;570.92;;
2824;SDS011;1420;51.324;12.344;2023-07-09T07:52:24;569.64;;;540.62;;
2824;SDS011;1420;51.324;12.344;2023-07-09T07:54:51;606.24;;;575.56;;
2824;SDS011;1420;51.324;12.344;2023-07-09T07:57:18;635.00;;;602.20;;
2824;SDS011;1420;51.324;12.344;2023-07-09T07:59:46;607.28;;;575.58;;
2824;SDS011;1420;51.324;12.344;2023-07-09T08:02:13;581.26;;;551.70;;
2824;SDS011;1420;51.324;12.344;2023-07-09T08:04:40;587.34;;;557.94;;
2824;SDS011;1420;51.324;12.344;2023-07-09T08:07:09;642.52;;;608.36;;
2824;SDS011;1420;51.324;12.344;2023-07-09T08:09:35;646.14;;;612.16;;
2824;SDS011;1420;51.324;12.344;2023-07-09T08:12:03;632.26;;;598.94;;
2824;SDS011;1420;51.324;12.344;2023-07-09T08:14:30;622.00;;;590.00;;
2824;SDS011;1420;51.324;12.344;2023-07-09T08:16:57;608.68;;;577.12;;
2824;SDS011;1420;51.324;12.344;2023-07-09T08:19:24;622.28;;;589.14;;
2824;SDS011;1420;51.324;12.344;2023-07-09T08:21:52;590.90;;;560.40;;
2824;SDS011;1420;51.324;12.344;2023-07-09T08:24:19;601.58;;;570.80;;
2824;SDS011;1420;51.324;12.344;2023-07-09T08:26:46;561.60;;;533.24;;
2824;SDS011;1420;51.324;12.344;2023-07-09T08:29:13;576.56;;;547.44;;
2824;SDS011;1420;51.324;12.344;2023-07-09T08:31:40;583.02;;;553.22;;
2824;SDS011;1420;51.324;12.344;2023-07-09T08:34:08;577.70;;;548.32;;
2824;SDS011;1420;51.324;12.344;2023-07-09T08:36:35;554.04;;;525.88;;
2824;SDS011;1420;51.324;12.344;2023-07-09T08:39:02;707.72;;;668.96;;
2824;SDS011;1420;51.324;12.344;2023-07-09T08:41:35;651.30;;;615.60;;
2824;SDS011;1420;51.324;12.344;2023-07-09T08:44:06;619.18;;;586.90;;
2824;SDS011;1420;51.324;12.344;2023-07-09T08:46:53;623.06;;;590.32;;
2824;SDS011;1420;51.324;12.344;2023-07-09T08:49:20;636.40;;;602.88;;
2824;SDS011;1420;51.324;12.344;2023-07-09T08:51:46;594.92;;;565.10;;
2824;SDS011;1420;51.324;12.344;2023-07-09T08:54:16;517.98;;;491.84;;
2824;SDS011;1420;51.324;12.344;2023-07-09T08:56:41;531.72;;;505.74;;
2824;SDS011;1420;51.324;12.344;2023-07-09T08:59:08;525.66;;;499.86;;
2824;SDS011;1420;51.324;12.344;2023-07-09T09:01:38;536.80;;;510.70;;
2824;SDS011;1420;51.324;12.344;2023-07-09T09:04:05;601.14;;;571.32;;
2824;SDS011;1420;51.324;12.344;2023-07-09T09:06:32;562.16;;;534.72;;
2824;SDS011;1420;51.324;12.344;2023-07-09T09:09:03;598.62;;;567.86;;
2824;SDS011;1420;51.324;12.344;2023-07-09T09:11:39;596.16;;;566.08;;
2824;SDS011;1420;51.324;12.344;2023-07-09T09:14:18;627.48;;;595.40;;
2824;SDS011;1420;51.324;12.344;2023-07-09T09:16:45;534.60;;;508.30;;
2824;SDS011;1420;51.324;12.344;2023-07-09T09:19:18;514.50;;;489.62;;
2824;SDS011;1420;51.324;12.344;2023-07-09T09:21:45;747.24;;;705.78;;
2824;SDS011;1420;51.324;12.344;2023-07-09T09:24:14;720.26;;;681.00;;
2824;SDS011;1420;51.324;12.344;2023-07-09T09:26:41;646.78;;;612.54;;
2824;SDS011;1420;51.324;12.344;2023-07-09T09:29:15;676.20;;;640.44;;
2824;SDS011;1420;51.324;12.344;2023-07-09T09:31:48;634.02;;;601.12;;
2824;SDS011;1420;51.324;12.344;2023-07-09T09:34:17;568.08;;;539.76;;
2824;SDS011;1420;51.324;12.344;2023-07-09T09:36:46;571.20;;;542.44;;
2824;SDS011;1420;51.324;12.344;2023-07-09T09:39:14;552.56;;;525.10;;
2824;SDS011;1420;51.324;12.344;2023-07-09T09:41:41;660.96;;;626.10;;
2824;SDS011;1420;51.324;12.344;2023-07-09T09:44:17;626.74;;;594.22;;
2824;SDS011;1420;51.324;12.344;2023-07-09T09:46:43;692.76;;;655.80;;
2824;SDS011;1420;51.324;12.344;2023-07-09T09:49:10;642.10;;;608.40;;
2824;SDS011;1420;51.324;12.344;2023-07-09T09:51:39;652.64;;;619.32;;
2824;SDS011;1420;51.324;12.344;2023-07-09T09:54:07;748.04;;;706.44;;
2824;SDS011;1420;51.324;12.344;2023-07-09T09:56:34;599.62;;;569.30;;
2824;SDS011;1420;51.324;12.344;2023-07-09T09:59:01;583.54;;;554.20;;
2824;SDS011;1420;51.324;12.344;2023-07-09T10:01:29;583.12;;;553.36;;
2824;SDS011;1420;51.324;12.344;2023-07-09T10:03:57;558.56;;;530.88;;
2824;SDS011;1420;51.324;12.344;2023-07-09T10:06:40;483.94;;;461.14;;
2824;SDS011;1420;51.324;12.344;2023-07-09T10:11:57;587.82;;;558.84;;
2824;SDS011;1420;51.324;12.344;2023-07-09T10:14:31;571.22;;;542.78;;
2824;SDS011;1420;51.324;12.344;2023-07-09T10:19:56;577.44;;;549.64;;
2824;SDS011;1420;51.324;12.344;2023-07-09T10:22:28;521.30;;;495.84;;
2824;SDS011;1420;51.324;12.344;2023-07-09T10:25:19;547.12;;;520.10;;
2824;SDS011;1420;51.324;12.344;2023-07-09T10:27:52;545.52;;;518.68;;
2824;SDS011;1420;51.324;12.344;2023-07-09T10:30:17;550.90;;;523.72;;
2824;SDS011;1420;51.324;12.344;2023-07-09T10:33:01;561.60;;;533.74;;
2824;SDS011;1420;51.324;12.344;2023-07-09T10:35:32;593.96;;;564.74;;
2824;SDS011;1420;51.324;12.344;2023-07-09T10:38:06;712.22;;;673.96;;
2824;SDS011;1420;51.324;12.344;2023-07-09T10:42:59;697.10;;;658.98;;
2824;SDS011;1420;51.324;12.344;2023-07-09T10:45:29;720.72;;;681.16;;
2824;SDS011;1420;51.324;12.344;2023-07-09T10:47:58;662.88;;;627.30;;
2824;SDS011;1420;51.324;12.344;2023-07-09T10:50:28;669.46;;;634.00;;
2824;SDS011;1420;51.324;12.344;2023-07-09T10:52:55;659.82;;;626.10;;
2824;SDS011;1420;51.324;12.344;2023-07-09T10:55:33;660.48;;;624.82;;
2824;SDS011;1420;51.324;12.344;2023-07-09T11:00:40;693.96;;;656.44;;
2824;SDS011;1420;51.324;12.344;2023-07-09T11:03:13;696.34;;;658.56;;
2824;SDS011;1420;51.324;12.344;2023-07-09T11:05:37;731.74;;;692.18;;
2824;SDS011;1420;51.324;12.344;2023-07-09T11:08:06;700.78;;;662.36;;
2824;SDS011;1420;51.324;12.344;2023-07-09T11:10:36;727.32;;;687.08;;
2824;SDS011;1420;51.324;12.344;2023-07-09T11:13:05;737.16;;;696.52;;
2824;SDS011;1420;51.324;12.344;2023-07-09T11:15:35;704.50;;;665.40;;
2824;SDS011;1420;51.324;12.344;2023-07-09T11:18:02;750.28;;;708.18;;
2824;SDS011;1420;51.324;12.344;2023-07-09T11:20:32;730.18;;;689.98;;
2824;SDS011;1420;51.324;12.344;2023-07-09T11:23:02;726.24;;;685.04;;
2824;SDS011;1420;51.324;12.344;2023-07-09T11:25:45;751.74;;;709.82;;
2824;SDS011;1420;51.324;12.344;2023-07-09T11:28:11;761.78;;;719.64;;
2824;SDS011;1420;51.324;12.344;2023-07-09T11:30:45;748.38;;;706.52;;
2824;SDS011;1420;51.324;12.344;2023-07-09T11:33:17;777.70;;;733.22;;
2824;SDS011;1420;51.324;12.344;2023-07-09T11:35:46;793.96;;;747.94;;
2824;SDS011;1420;51.324;12.344;2023-07-09T11:38:17;782.78;;;737.44;;
2824;SDS011;1420;51.324;12.344;2023-07-09T11:40:47;824.50;;;774.80;;
2824;SDS011;1420;51.324;12.344;2023-07-09T11:45:54;840.08;;;789.46;;
2824;SDS011;1420;51.324;12.344;2023-07-09T11:48:25;876.54;;;823.82;;
2824;SDS011;1420;51.324;12.344;2023-07-09T11:50:52;863.76;;;810.12;;
2824;SDS011;1420;51.324;12.344;2023-07-09T11:53:51;864.06;;;811.38;;
2824;SDS011;1420;51.324;12.344;2023-07-09T11:56:01;886.34;;;831.84;;
2824;SDS011;1420;51.324;12.344;2023-07-09T11:58:28;866.06;;;812.58;;
2824;SDS011;1420;51.324;12.344;2023-07-09T12:00:56;858.00;;;805.42;;
2824;SDS011;1420;51.324;12.344;2023-07-09T12:03:23;864.96;;;811.72;;
2824;SDS011;1420;51.324;12.344;2023-07-09T12:05:54;860.90;;;808.26;;
2824;SDS011;1420;51.324;12.344;2023-07-09T12:08:26;839.22;;;789.00;;
2824;SDS011;1420;51.324;12.344;2023-07-09T12:10:52;840.88;;;790.26;;
2824;SDS011;1420;51.324;12.344;2023-07-09T12:13:19;878.06;;;824.74;;
2824;SDS011;1420;51.324;12.344;2023-07-09T12:15:47;843.86;;;791.96;;
2824;SDS011;1420;51.324;12.344;2023-07-09T12:18:14;848.06;;;796.40;;
2824;SDS011;1420;51.324;12.344;2023-07-09T12:20:42;891.32;;;835.76;;
2824;SDS011;1420;51.324;12.344;2023-07-09T12:23:10;867.70;;;813.48;;
2824;SDS011;1420;51.324;12.344;2023-07-09T12:25:37;843.36;;;790.74;;
2824;SDS011;1420;51.324;12.344;2023-07-09T12:28:04;871.26;;;816.96;;
2824;SDS011;1420;51.324;12.344;2023-07-09T12:30:32;909.88;;;853.86;;
2824;SDS011;1420;51.324;12.344;2023-07-09T12:32:59;871.64;;;816.70;;
2824;SDS011;1420;51.324;12.344;2023-07-09T12:35:26;869.24;;;814.88;;
2824;SDS011;1420;51.324;12.344;2023-07-09T12:37:53;856.66;;;803.46;;
2824;SDS011;1420;51.324;12.344;2023-07-09T12:40:21;879.32;;;824.02;;
2824;SDS011;1420;51.324;12.344;2023-07-09T12:42:47;871.88;;;817.98;;
2824;SDS011;1420;51.324;12.344;2023-07-09T12:45:19;872.36;;;817.88;;
2824;SDS011;1420;51.324;12.344;2023-07-09T12:47:45;862.10;;;809.80;;
2824;SDS011;1420;51.324;12.344;2023-07-09T12:50:21;867.42;;;813.60;;
2824;SDS011;1420;51.324;12.344;2023-07-09T12:52:53;856.40;;;803.24;;
2824;SDS011;1420;51.324;12.344;2023-07-09T12:55:21;853.64;;;801.26;;
2824;SDS011;1420;51.324;12.344;2023-07-09T12:57:48;851.14;;;800.06;;
2824;SDS011;1420;51.324;12.344;2023-07-09T13:00:16;885.08;;;830.84;;
2824;SDS011;1420;51.324;12.344;2023-07-09T13:02:43;863.78;;;809.64;;
2824;SDS011;1420;51.324;12.344;2023-07-09T13:05:17;878.14;;;824.20;;
2824;SDS011;1420;51.324;12.344;2023-07-09T13:07:42;887.02;;;832.80;;
2824;SDS011;1420;51.324;12.344;2023-07-09T13:10:17;869.70;;;816.12;;
2824;SDS011;1420;51.324;12.344;2023-07-09T13:12:44;869.20;;;815.52;;
2824;SDS011;1420;51.324;12.344;2023-07-09T13:17:48;850.44;;;798.22;;
2824;SDS011;1420;51.324;12.344;2023-07-09T13:20:16;827.26;;;776.68;;
2824;SDS011;1420;51.324;12.344;2023-07-09T13:22:43;882.48;;;827.64;;
2824;SDS011;1420;51.324;12.344;2023-07-09T13:25:10;853.44;;;801.92;;
2824;SDS011;1420;51.324;12.344;2023-07-09T13:27:37;861.92;;;808.74;;
2824;SDS011;1420;51.324;12.344;2023-07-09T13:30:05;886.58;;;831.40;;
2824;SDS011;1420;51.324;12.344;2023-07-09T13:32:33;881.06;;;826.04;;
2824;SDS011;1420;51.324;12.344;2023-07-09T13:35:00;853.04;;;800.64;;
2824;SDS011;1420;51.324;12.344;2023-07-09T13:37:27;887.12;;;832.84;;
2824;SDS011;1420;51.324;12.344;2023-07-09T13:39:54;857.78;;;805.26;;
2824;SDS011;1420;51.324;12.344;2023-07-09T13:42:21;883.14;;;828.10;;
2824;SDS011;1420;51.324;12.344;2023-07-09T13:44:49;870.40;;;816.36;;
2824;SDS011;1420;51.324;12.344;2023-07-09T13:47:17;808.52;;;760.34;;
2824;SDS011;1420;51.324;12.344;2023-07-09T13:49:43;866.66;;;813.70;;
2824;SDS011;1420;51.324;12.344;2023-07-09T13:52:14;870.12;;;815.36;;
2824;SDS011;1420;51.324;12.344;2023-07-09T13:54:40;871.66;;;817.94;;
2824;SDS011;1420;51.324;12.344;2023-07-09T13:57:10;883.14;;;827.42;;
2824;SDS011;1420;51.324;12.344;2023-07-09T13:59:34;833.04;;;782.06;;
2824;SDS011;1420;51.324;12.344;2023-07-09T14:02:01;911.58;;;854.66;;
2824;SDS011;1420;51.324;12.344;2023-07-09T14:04:29;877.96;;;823.58;;
2824;SDS011;1420;51.324;12.344;2023-07-09T14:06:56;877.48;;;822.40;;
2824;SDS011;1420;51.324;12.344;2023-07-09T14:09:23;871.62;;;817.66;;
2824;SDS011;1420;51.324;12.344;2023-07-09T14:11:51;886.12;;;830.28;;
2824;SDS011;1420;51.324;12.344;2023-07-09T14:14:19;862.74;;;808.46;;
2824;SDS011;1420;51.324;12.344;2023-07-09T14:16:45;863.22;;;810.46;;
2824;SDS011;1420;51.324;12.344;2023-07-09T14:19:13;845.88;;;794.66;;
2824;SDS011;1420;51.324;12.344;2023-07-09T14:21:39;885.22;;;830.58;;
2824;SDS011;1420;51.324;12.344;2023-07-09T14:24:21;854.10;;;801.68;;
2824;SDS011;1420;51.324;12.344;2023-07-09T14:26:50;855.48;;;802.68;;
2824;SDS011;1420;51.324;12.344;2023-07-09T14:29:17;874.82;;;820.14;;
2824;SDS011;1420;51.324;12.344;2023-07-09T14:31:45;868.54;;;814.76;;
2824;SDS011;1420;51.324;12.344;2023-07-09T14:34:24;871.54;;;818.02;;
2824;SDS011;1420;51.324;12.344;2023-07-09T14:36:53;865.44;;;812.94;;
2824;SDS011;1420;51.324;12.344;2023-07-09T14:39:19;829.74;;;779.02;;